sensor_id;sensor_type;location;lat;lon;timestamp;P1;durP1;ratioP1;P2;durP2;ratioP2
37847;SDS011;23688;33.130;-117.188;2022-11-15T00:00:54;7.53;;;1.70;;
37847;SDS011;23688;33.130;-117.188;2022-11-15T00:03:22;6.00;;;1.58;;
37847;SDS011;23688;33.130;-117.188;2022-11-15T00:05:50;7.13;;;2.00;;
37847;SDS011;23688;33.130;-117.188;2022-11-15T00:08:16;8.63;;;2.10;;
37847;SDS011;23688;33.130;-117.188;2022-11-15T00:10:43;10.93;;;2.35;;
37847;SDS011;23688;33.130;-117.188;2022-11-15T00:13:20;7.47;;;2.15;;
37847;SDS011;23688;33.130;-117.188;2022-11-15T00:15:46;4.70;;;2.10;;
37847;SDS011;23688;33.130;-117.188;2022-11-15T00:18:13;6.57;;;2.55;;
37847;SDS011;23688;33.130;-117.188;2022-11-15T00:20:40;7.53;;;1.88;;
37847;SDS011;23688;33.130;-117.188;2022-11-15T00:23:08;9.55;;;2.33;;
37847;SDS011;23688;33.130;-117.188;2022-11-15T00:25:34;7.20;;;2.00;;
37847;SDS011;23688;33.130;-117.188;2022-11-15T00:28:01;11.10;;;2.15;;
37847;SDS011;23688;33.130;-117.188;2022-11-15T00:30:28;8.68;;;2.05;;
37847;SDS011;23688;33.130;-117.188;2022-11-15T00:32:54;7.07;;;1.73;;
37847;SDS011;23688;33.130;-117.188;2022-11-15T00:35:21;7.15;;;2.20;;
37847;SDS011;23688;33.130;-117.188;2022-11-15T00:37:47;8.55;;;2.70;;
37847;SDS011;23688;33.130;-117.188;2022-11-15T00:40:14;8.85;;;2.78;;
37847;SDS011;23688;33.130;-117.188;2022-11-15T00:42:41;6.40;;;2.47;;
37847;SDS011;23688;33.130;-117.188;2022-11-15T00:45:07;9.57;;;2.95;;
37847;SDS011;23688;33.130;-117.188;2022-11-15T00:47:34;15.70;;;3.10;;
37847;SDS011;23688;33.130;-117.188;2022-11-15T00:50:03;6.47;;;2.80;;
37847;SDS011;23688;33.130;-117.188;2022-11-15T00:52:30;8.93;;;2.95;;
37847;SDS011;23688;33.130;-117.188;2022-11-15T00:54:56;12.40;;;3.58;;
37847;SDS011;23688;33.130;-117.188;2022-11-15T00:57:22;11.18;;;2.72;;
37847;SDS011;23688;33.130;-117.188;2022-11-15T00:59:48;6.35;;;2.53;;
37847;SDS011;23688;33.130;-117.188;2022-11-15T01:02:15;9.32;;;2.90;;
37847;SDS011;23688;33.130;-117.188;2022-11-15T01:04:41;6.18;;;3.00;;
37847;SDS011;23688;33.130;-117.188;2022-11-15T01:07:07;14.05;;;2.92;;
37847;SDS011;23688;33.130;-117.188;2022-11-15T01:09:33;8.70;;;2.17;;
37847;SDS011;23688;33.130;-117.188;2022-11-15T01:12:00;5.28;;;2.22;;
37847;SDS011;23688;33.130;-117.188;2022-11-15T01:14:26;9.13;;;2.28;;
37847;SDS011;23688;33.130;-117.188;2022-11-15T01:16:53;7.75;;;2.10;;
37847;SDS011;23688;33.130;-117.188;2022-11-15T01:19:19;7.13;;;2.38;;
37847;SDS011;23688;33.130;-117.188;2022-11-15T01:21:48;9.85;;;2.50;;
37847;SDS011;23688;33.130;-117.188;2022-11-15T01:24:15;9.82;;;2.63;;
37847;SDS011;23688;33.130;-117.188;2022-11-15T01:26:41;8.63;;;2.38;;
37847;SDS011;23688;33.130;-117.188;2022-11-15T01:29:08;6.72;;;1.90;;
37847;SDS011;23688;33.130;-117.188;2022-11-15T01:31:34;5.63;;;2.17;;
37847;SDS011;23688;33.130;-117.188;2022-11-15T01:34:00;14.23;;;3.88;;
37847;SDS011;23688;33.130;-117.188;2022-11-15T01:36:29;8.68;;;4.45;;
37847;SDS011;23688;33.130;-117.188;2022-11-15T01:38:56;10.60;;;4.97;;
37847;SDS011;23688;33.130;-117.188;2022-11-15T01:41:25;13.10;;;3.92;;
37847;SDS011;23688;33.130;-117.188;2022-11-15T01:43:55;11.15;;;3.83;;
37847;SDS011;23688;33.130;-117.188;2022-11-15T01:46:35;8.98;;;3.90;;
37847;SDS011;23688;33.130;-117.188;2022-11-15T01:49:05;12.13;;;3.80;;
37847;SDS011;23688;33.130;-117.188;2022-11-15T01:51:39;10.27;;;3.97;;
37847;SDS011;23688;33.130;-117.188;2022-11-15T01:54:07;9.90;;;4.47;;
37847;SDS011;23688;33.130;-117.188;2022-11-15T01:56:46;5.63;;;3.55;;
37847;SDS011;23688;33.130;-117.188;2022-11-15T01:59:18;11.23;;;4.70;;
37847;SDS011;23688;33.130;-117.188;2022-11-15T02:01:45;11.43;;;4.13;;
37847;SDS011;23688;33.130;-117.188;2022-11-15T02:06:47;11.25;;;3.58;;
37847;SDS011;23688;33.130;-117.188;2022-11-15T02:09:14;11.68;;;2.88;;
37847;SDS011;23688;33.130;-117.188;2022-11-15T02:11:41;11.00;;;3.90;;
37847;SDS011;23688;33.130;-117.188;2022-11-15T02:30:37;8.20;;;2.80;;
37847;SDS011;23688;33.130;-117.188;2022-11-15T02:36:10;8.77;;;3.22;;
37847;SDS011;23688;33.130;-117.188;2022-11-15T02:38:47;9.07;;;2.95;;
37847;SDS011;23688;33.130;-117.188;2022-11-15T02:41:39;6.80;;;2.88;;
37847;SDS011;23688;33.130;-117.188;2022-11-15T02:49:33;9.43;;;3.28;;
37847;SDS011;23688;33.130;-117.188;2022-11-15T02:52:00;9.90;;;3.45;;
37847;SDS011;23688;33.130;-117.188;2022-11-15T02:54:31;7.75;;;2.95;;
37847;SDS011;23688;33.130;-117.188;2022-11-15T02:56:59;8.07;;;3.00;;
37847;SDS011;23688;33.130;-117.188;2022-11-15T03:00:29;8.43;;;2.60;;
37847;SDS011;23688;33.130;-117.188;2022-11-15T03:11:18;9.77;;;3.45;;
37847;SDS011;23688;33.130;-117.188;2022-11-15T03:16:26;5.82;;;3.30;;
37847;SDS011;23688;33.130;-117.188;2022-11-15T03:19:01;12.73;;;3.70;;
37847;SDS011;23688;33.130;-117.188;2022-11-15T03:21:39;9.48;;;3.25;;
37847;SDS011;23688;33.130;-117.188;2022-11-15T03:24:06;6.80;;;2.53;;
37847;SDS011;23688;33.130;-117.188;2022-11-15T03:26:34;5.63;;;3.00;;
37847;SDS011;23688;33.130;-117.188;2022-11-15T03:29:23;9.38;;;3.97;;
37847;SDS011;23688;33.130;-117.188;2022-11-15T03:31:56;5.68;;;3.78;;
37847;SDS011;23688;33.130;-117.188;2022-11-15T03:34:27;9.70;;;3.40;;
37847;SDS011;23688;33.130;-117.188;2022-11-15T03:37:10;10.13;;;4.28;;
37847;SDS011;23688;33.130;-117.188;2022-11-15T03:39:40;19.42;;;10.15;;
37847;SDS011;23688;33.130;-117.188;2022-11-15T03:45:16;9.75;;;5.00;;
37847;SDS011;23688;33.130;-117.188;2022-11-15T03:47:58;8.10;;;3.97;;
37847;SDS011;23688;33.130;-117.188;2022-11-15T03:50:36;6.50;;;3.28;;
37847;SDS011;23688;33.130;-117.188;2022-11-15T03:53:02;3.65;;;2.58;;
37847;SDS011;23688;33.130;-117.188;2022-11-15T03:55:29;5.60;;;2.20;;
37847;SDS011;23688;33.130;-117.188;2022-11-15T03:57:58;4.72;;;2.20;;
37847;SDS011;23688;33.130;-117.188;2022-11-15T04:00:25;7.15;;;2.80;;
37847;SDS011;23688;33.130;-117.188;2022-11-15T04:02:52;6.30;;;3.28;;
37847;SDS011;23688;33.130;-117.188;2022-11-15T04:05:19;6.10;;;2.80;;
37847;SDS011;23688;33.130;-117.188;2022-11-15T04:07:45;12.95;;;3.60;;
37847;SDS011;23688;33.130;-117.188;2022-11-15T04:10:12;10.98;;;3.45;;
37847;SDS011;23688;33.130;-117.188;2022-11-15T04:12:39;10.82;;;4.22;;
37847;SDS011;23688;33.130;-117.188;2022-11-15T04:15:10;10.93;;;3.78;;
37847;SDS011;23688;33.130;-117.188;2022-11-15T04:17:42;9.43;;;3.65;;
37847;SDS011;23688;33.130;-117.188;2022-11-15T04:20:19;8.27;;;3.40;;
37847;SDS011;23688;33.130;-117.188;2022-11-15T04:23:12;13.13;;;4.07;;
37847;SDS011;23688;33.130;-117.188;2022-11-15T04:25:59;10.18;;;3.83;;
37847;SDS011;23688;33.130;-117.188;2022-11-15T04:28:31;8.25;;;3.60;;
37847;SDS011;23688;33.130;-117.188;2022-11-15T04:30:57;6.95;;;3.45;;
37847;SDS011;23688;33.130;-117.188;2022-11-15T04:33:23;11.07;;;3.42;;
37847;SDS011;23688;33.130;-117.188;2022-11-15T04:35:50;6.47;;;2.70;;
37847;SDS011;23688;33.130;-117.188;2022-11-15T04:38:35;8.45;;;2.60;;
37847;SDS011;23688;33.130;-117.188;2022-11-15T04:41:02;9.93;;;2.75;;
37847;SDS011;23688;33.130;-117.188;2022-11-15T04:43:28;11.38;;;3.20;;
37847;SDS011;23688;33.130;-117.188;2022-11-15T04:45:55;7.20;;;2.30;;
37847;SDS011;23688;33.130;-117.188;2022-11-15T04:48:22;6.78;;;2.40;;
37847;SDS011;23688;33.130;-117.188;2022-11-15T04:50:48;10.93;;;3.15;;
37847;SDS011;23688;33.130;-117.188;2022-11-15T04:53:15;7.60;;;5.20;;
37847;SDS011;23688;33.130;-117.188;2022-11-15T04:55:44;11.55;;;5.60;;
37847;SDS011;23688;33.130;-117.188;2022-11-15T05:01:33;11.50;;;5.82;;
37847;SDS011;23688;33.130;-117.188;2022-11-15T05:03:59;9.13;;;4.18;;
37847;SDS011;23688;33.130;-117.188;2022-11-15T05:06:44;8.27;;;3.78;;
37847;SDS011;23688;33.130;-117.188;2022-11-15T05:09:16;14.70;;;4.20;;
37847;SDS011;23688;33.130;-117.188;2022-11-15T05:14:09;6.93;;;4.40;;
37847;SDS011;23688;33.130;-117.188;2022-11-15T05:16:37;6.93;;;3.10;;
37847;SDS011;23688;33.130;-117.188;2022-11-15T05:19:03;11.15;;;2.45;;
37847;SDS011;23688;33.130;-117.188;2022-11-15T05:21:30;8.00;;;2.65;;
37847;SDS011;23688;33.130;-117.188;2022-11-15T05:23:58;13.35;;;4.05;;
37847;SDS011;23688;33.130;-117.188;2022-11-15T05:26:24;5.18;;;3.30;;
37847;SDS011;23688;33.130;-117.188;2022-11-15T05:28:57;11.68;;;4.22;;
37847;SDS011;23688;33.130;-117.188;2022-11-15T05:31:24;9.52;;;3.45;;
37847;SDS011;23688;33.130;-117.188;2022-11-15T05:33:52;10.73;;;2.80;;
37847;SDS011;23688;33.130;-117.188;2022-11-15T05:36:38;12.05;;;2.95;;
37847;SDS011;23688;33.130;-117.188;2022-11-15T05:39:07;6.60;;;3.20;;
37847;SDS011;23688;33.130;-117.188;2022-11-15T05:41:39;8.82;;;3.17;;
37847;SDS011;23688;33.130;-117.188;2022-11-15T05:44:10;7.45;;;3.35;;
37847;SDS011;23688;33.130;-117.188;2022-11-15T05:46:39;4.22;;;2.65;;
37847;SDS011;23688;33.130;-117.188;2022-11-15T05:49:09;8.60;;;3.58;;
37847;SDS011;23688;33.130;-117.188;2022-11-15T05:51:38;11.98;;;3.45;;
37847;SDS011;23688;33.130;-117.188;2022-11-15T05:54:05;9.43;;;3.38;;
37847;SDS011;23688;33.130;-117.188;2022-11-15T05:56:32;10.80;;;3.20;;
37847;SDS011;23688;33.130;-117.188;2022-11-15T05:58:58;11.15;;;3.60;;
37847;SDS011;23688;33.130;-117.188;2022-11-15T06:01:24;6.13;;;3.03;;
37847;SDS011;23688;33.130;-117.188;2022-11-15T06:03:52;8.70;;;2.80;;
37847;SDS011;23688;33.130;-117.188;2022-11-15T06:06:18;12.30;;;4.78;;
37847;SDS011;23688;33.130;-117.188;2022-11-15T06:08:44;16.58;;;4.50;;
37847;SDS011;23688;33.130;-117.188;2022-11-15T06:11:11;5.10;;;3.65;;
37847;SDS011;23688;33.130;-117.188;2022-11-15T06:13:39;11.98;;;5.40;;
37847;SDS011;23688;33.130;-117.188;2022-11-15T06:16:06;10.15;;;4.68;;
37847;SDS011;23688;33.130;-117.188;2022-11-15T06:18:33;15.88;;;5.15;;
37847;SDS011;23688;33.130;-117.188;2022-11-15T06:21:00;11.95;;;5.20;;
37847;SDS011;23688;33.130;-117.188;2022-11-15T06:23:27;4.38;;;2.70;;
37847;SDS011;23688;33.130;-117.188;2022-11-15T06:25:57;5.43;;;3.13;;
37847;SDS011;23688;33.130;-117.188;2022-11-15T06:28:24;9.77;;;3.78;;
37847;SDS011;23688;33.130;-117.188;2022-11-15T06:30:53;10.05;;;3.63;;
37847;SDS011;23688;33.130;-117.188;2022-11-15T06:33:19;8.25;;;4.07;;
37847;SDS011;23688;33.130;-117.188;2022-11-15T06:35:45;13.93;;;3.00;;
37847;SDS011;23688;33.130;-117.188;2022-11-15T06:38:12;8.93;;;3.50;;
37847;SDS011;23688;33.130;-117.188;2022-11-15T06:40:38;12.20;;;3.35;;
37847;SDS011;23688;33.130;-117.188;2022-11-15T06:43:05;10.00;;;4.00;;
37847;SDS011;23688;33.130;-117.188;2022-11-15T06:45:32;5.78;;;3.15;;
37847;SDS011;23688;33.130;-117.188;2022-11-15T06:47:58;7.70;;;2.40;;
37847;SDS011;23688;33.130;-117.188;2022-11-15T06:50:26;5.55;;;2.83;;
37847;SDS011;23688;33.130;-117.188;2022-11-15T06:52:52;10.40;;;3.75;;
37847;SDS011;23688;33.130;-117.188;2022-11-15T06:55:19;5.25;;;3.50;;
37847;SDS011;23688;33.130;-117.188;2022-11-15T06:57:46;10.73;;;4.50;;
37847;SDS011;23688;33.130;-117.188;2022-11-15T07:00:14;11.18;;;4.00;;
37847;SDS011;23688;33.130;-117.188;2022-11-15T07:02:41;9.73;;;3.45;;
37847;SDS011;23688;33.130;-117.188;2022-11-15T07:05:08;5.78;;;2.70;;
37847;SDS011;23688;33.130;-117.188;2022-11-15T07:07:34;10.20;;;2.20;;
37847;SDS011;23688;33.130;-117.188;2022-11-15T07:10:01;4.80;;;3.00;;
37847;SDS011;23688;33.130;-117.188;2022-11-15T07:12:27;13.90;;;3.28;;
37847;SDS011;23688;33.130;-117.188;2022-11-15T07:14:53;6.95;;;4.32;;
37847;SDS011;23688;33.130;-117.188;2022-11-15T07:17:20;13.82;;;3.63;;
37847;SDS011;23688;33.130;-117.188;2022-11-15T07:19:46;12.18;;;3.70;;
37847;SDS011;23688;33.130;-117.188;2022-11-15T07:22:12;6.32;;;2.67;;
37847;SDS011;23688;33.130;-117.188;2022-11-15T07:24:39;5.30;;;2.65;;
37847;SDS011;23688;33.130;-117.188;2022-11-15T07:27:05;6.50;;;3.83;;
37847;SDS011;23688;33.130;-117.188;2022-11-15T07:29:31;11.70;;;3.90;;
37847;SDS011;23688;33.130;-117.188;2022-11-15T07:31:58;10.82;;;4.32;;
37847;SDS011;23688;33.130;-117.188;2022-11-15T07:34:24;5.55;;;2.80;;
37847;SDS011;23688;33.130;-117.188;2022-11-15T07:36:50;8.77;;;2.90;;
37847;SDS011;23688;33.130;-117.188;2022-11-15T07:39:16;6.70;;;3.45;;
37847;SDS011;23688;33.130;-117.188;2022-11-15T07:41:43;9.70;;;4.55;;
37847;SDS011;23688;33.130;-117.188;2022-11-15T07:44:09;8.38;;;4.10;;
37847;SDS011;23688;33.130;-117.188;2022-11-15T07:46:36;6.43;;;2.80;;
37847;SDS011;23688;33.130;-117.188;2022-11-15T07:49:03;7.22;;;3.92;;
37847;SDS011;23688;33.130;-117.188;2022-11-15T07:51:29;7.28;;;3.58;;
37847;SDS011;23688;33.130;-117.188;2022-11-15T07:53:56;5.88;;;3.08;;
37847;SDS011;23688;33.130;-117.188;2022-11-15T07:56:22;7.57;;;4.03;;
37847;SDS011;23688;33.130;-117.188;2022-11-15T07:58:48;7.82;;;3.10;;
37847;SDS011;23688;33.130;-117.188;2022-11-15T08:01:15;8.18;;;2.58;;
37847;SDS011;23688;33.130;-117.188;2022-11-15T08:03:41;5.53;;;2.92;;
37847;SDS011;23688;33.130;-117.188;2022-11-15T08:06:08;8.18;;;3.40;;
37847;SDS011;23688;33.130;-117.188;2022-11-15T08:08:34;10.55;;;4.80;;
37847;SDS011;23688;33.130;-117.188;2022-11-15T08:11:00;9.32;;;3.90;;
37847;SDS011;23688;33.130;-117.188;2022-11-15T08:13:26;15.55;;;6.03;;
37847;SDS011;23688;33.130;-117.188;2022-11-15T08:16:02;9.88;;;4.20;;
37847;SDS011;23688;33.130;-117.188;2022-11-15T08:18:30;9.02;;;4.60;;
37847;SDS011;23688;33.130;-117.188;2022-11-15T08:21:00;11.00;;;5.15;;
37847;SDS011;23688;33.130;-117.188;2022-11-15T08:23:27;11.10;;;5.63;;
37847;SDS011;23688;33.130;-117.188;2022-11-15T08:25:58;12.48;;;5.32;;
37847;SDS011;23688;33.130;-117.188;2022-11-15T08:28:28;12.55;;;4.00;;
37847;SDS011;23688;33.130;-117.188;2022-11-15T08:30:55;8.27;;;3.33;;
37847;SDS011;23688;33.130;-117.188;2022-11-15T08:33:21;11.45;;;3.75;;
37847;SDS011;23688;33.130;-117.188;2022-11-15T08:35:48;16.83;;;4.03;;
37847;SDS011;23688;33.130;-117.188;2022-11-15T08:38:14;8.65;;;4.38;;
37847;SDS011;23688;33.130;-117.188;2022-11-15T08:40:40;9.18;;;3.28;;
37847;SDS011;23688;33.130;-117.188;2022-11-15T08:45:35;10.90;;;4.25;;
37847;SDS011;23688;33.130;-117.188;2022-11-15T08:48:02;14.50;;;3.97;;
37847;SDS011;23688;33.130;-117.188;2022-11-15T08:50:29;8.23;;;3.42;;
37847;SDS011;23688;33.130;-117.188;2022-11-15T08:52:56;17.05;;;3.10;;
37847;SDS011;23688;33.130;-117.188;2022-11-15T08:55:22;13.90;;;3.60;;
37847;SDS011;23688;33.130;-117.188;2022-11-15T08:57:48;12.82;;;3.80;;
37847;SDS011;23688;33.130;-117.188;2022-11-15T09:00:15;6.70;;;3.10;;
37847;SDS011;23688;33.130;-117.188;2022-11-15T09:02:42;9.20;;;3.03;;
37847;SDS011;23688;33.130;-117.188;2022-11-15T09:05:09;9.20;;;3.28;;
37847;SDS011;23688;33.130;-117.188;2022-11-15T09:07:35;7.75;;;3.35;;
37847;SDS011;23688;33.130;-117.188;2022-11-15T09:10:01;8.30;;;3.45;;
37847;SDS011;23688;33.130;-117.188;2022-11-15T09:12:27;10.18;;;5.25;;
37847;SDS011;23688;33.130;-117.188;2022-11-15T09:14:54;11.45;;;4.97;;
37847;SDS011;23688;33.130;-117.188;2022-11-15T09:17:21;6.88;;;4.55;;
37847;SDS011;23688;33.130;-117.188;2022-11-15T09:19:47;5.40;;;3.03;;
37847;SDS011;23688;33.130;-117.188;2022-11-15T09:22:14;6.88;;;2.88;;
37847;SDS011;23688;33.130;-117.188;2022-11-15T09:24:40;6.43;;;2.50;;
37847;SDS011;23688;33.130;-117.188;2022-11-15T09:27:07;11.10;;;4.28;;
37847;SDS011;23688;33.130;-117.188;2022-11-15T09:29:33;10.23;;;4.25;;
37847;SDS011;23688;33.130;-117.188;2022-11-15T09:32:00;13.93;;;5.25;;
37847;SDS011;23688;33.130;-117.188;2022-11-15T09:34:26;10.18;;;4.85;;
37847;SDS011;23688;33.130;-117.188;2022-11-15T09:36:55;11.98;;;4.13;;
37847;SDS011;23688;33.130;-117.188;2022-11-15T09:39:21;7.85;;;4.28;;
37847;SDS011;23688;33.130;-117.188;2022-11-15T09:41:50;13.77;;;4.30;;
37847;SDS011;23688;33.130;-117.188;2022-11-15T09:53:14;9.88;;;3.75;;
37847;SDS011;23688;33.130;-117.188;2022-11-15T09:56:43;14.65;;;4.20;;
37847;SDS011;23688;33.130;-117.188;2022-11-15T10:04:36;8.00;;;3.85;;
37847;SDS011;23688;33.130;-117.188;2022-11-15T10:09:45;12.18;;;3.85;;
37847;SDS011;23688;33.130;-117.188;2022-11-15T10:12:22;9.82;;;4.07;;
37847;SDS011;23688;33.130;-117.188;2022-11-15T10:14:53;10.88;;;4.75;;
37847;SDS011;23688;33.130;-117.188;2022-11-15T10:20:18;8.55;;;4.25;;
37847;SDS011;23688;33.130;-117.188;2022-11-15T10:22:55;13.38;;;4.22;;
37847;SDS011;23688;33.130;-117.188;2022-11-15T10:25:30;6.32;;;3.65;;
37847;SDS011;23688;33.130;-117.188;2022-11-15T10:30:30;7.22;;;3.97;;
37847;SDS011;23688;33.130;-117.188;2022-11-15T10:35:48;11.10;;;4.22;;
37847;SDS011;23688;33.130;-117.188;2022-11-15T10:39:10;8.55;;;3.22;;
37847;SDS011;23688;33.130;-117.188;2022-11-15T10:41:30;6.50;;;3.75;;
37847;SDS011;23688;33.130;-117.188;2022-11-15T10:46:43;7.05;;;3.20;;
37847;SDS011;23688;33.130;-117.188;2022-11-15T10:51:46;10.05;;;2.67;;
37847;SDS011;23688;33.130;-117.188;2022-11-15T10:54:48;9.82;;;3.00;;
37847;SDS011;23688;33.130;-117.188;2022-11-15T10:59:53;11.95;;;3.63;;
37847;SDS011;23688;33.130;-117.188;2022-11-15T11:05:06;11.00;;;2.92;;
37847;SDS011;23688;33.130;-117.188;2022-11-15T11:08:04;8.20;;;3.15;;
37847;SDS011;23688;33.130;-117.188;2022-11-15T11:10:55;5.18;;;2.50;;
37847;SDS011;23688;33.130;-117.188;2022-11-15T11:21:41;6.53;;;2.80;;
37847;SDS011;23688;33.130;-117.188;2022-11-15T11:24:22;6.07;;;2.65;;
37847;SDS011;23688;33.130;-117.188;2022-11-15T11:27:28;10.15;;;3.13;;
37847;SDS011;23688;33.130;-117.188;2022-11-15T11:30:18;10.02;;;2.58;;
37847;SDS011;23688;33.130;-117.188;2022-11-15T11:35:32;6.38;;;2.60;;
37847;SDS011;23688;33.130;-117.188;2022-11-15T11:44:36;8.27;;;2.55;;
37847;SDS011;23688;33.130;-117.188;2022-11-15T11:46:59;6.13;;;2.53;;
37847;SDS011;23688;33.130;-117.188;2022-11-15T11:49:49;12.77;;;2.80;;
37847;SDS011;23688;33.130;-117.188;2022-11-15T11:52:31;8.80;;;2.53;;
37847;SDS011;23688;33.130;-117.188;2022-11-15T11:55:10;7.10;;;2.50;;
37847;SDS011;23688;33.130;-117.188;2022-11-15T12:09:43;5.20;;;2.60;;
37847;SDS011;23688;33.130;-117.188;2022-11-15T12:16:51;3.75;;;2.40;;
37847;SDS011;23688;33.130;-117.188;2022-11-15T12:19:18;9.77;;;2.88;;
37847;SDS011;23688;33.130;-117.188;2022-11-15T12:24:15;9.98;;;3.20;;
37847;SDS011;23688;33.130;-117.188;2022-11-15T12:29:50;8.38;;;2.67;;
37847;SDS011;23688;33.130;-117.188;2022-11-15T12:34:54;16.00;;;3.50;;
37847;SDS011;23688;33.130;-117.188;2022-11-15T12:40:19;10.95;;;2.67;;
37847;SDS011;23688;33.130;-117.188;2022-11-15T12:45:49;3.80;;;2.03;;
37847;SDS011;23688;33.130;-117.188;2022-11-15T13:06:54;6.38;;;2.75;;
37847;SDS011;23688;33.130;-117.188;2022-11-15T13:12:01;8.10;;;2.38;;
37847;SDS011;23688;33.130;-117.188;2022-11-15T13:14:43;2.90;;;1.90;;
37847;SDS011;23688;33.130;-117.188;2022-11-15T13:17:22;6.25;;;1.75;;
37847;SDS011;23688;33.130;-117.188;2022-11-15T13:20:14;6.57;;;2.22;;
37847;SDS011;23688;33.130;-117.188;2022-11-15T13:23:09;6.43;;;2.38;;
37847;SDS011;23688;33.130;-117.188;2022-11-15T13:31:03;7.53;;;2.17;;
37847;SDS011;23688;33.130;-117.188;2022-11-15T13:33:51;5.93;;;2.97;;
37847;SDS011;23688;33.130;-117.188;2022-11-15T13:36:26;5.32;;;2.17;;
37847;SDS011;23688;33.130;-117.188;2022-11-15T13:41:24;3.90;;;2.10;;
37847;SDS011;23688;33.130;-117.188;2022-11-15T13:44:00;7.47;;;1.92;;
37847;SDS011;23688;33.130;-117.188;2022-11-15T13:46:29;3.60;;;2.00;;
37847;SDS011;23688;33.130;-117.188;2022-11-15T13:48:59;6.07;;;2.95;;
37847;SDS011;23688;33.130;-117.188;2022-11-15T13:51:33;6.03;;;2.50;;
37847;SDS011;23688;33.130;-117.188;2022-11-15T13:54:13;7.88;;;2.80;;
37847;SDS011;23688;33.130;-117.188;2022-11-15T13:56:52;3.88;;;2.25;;
37847;SDS011;23688;33.130;-117.188;2022-11-15T13:59:30;11.55;;;2.88;;
37847;SDS011;23688;33.130;-117.188;2022-11-15T14:02:02;8.68;;;2.25;;
37847;SDS011;23688;33.130;-117.188;2022-11-15T14:04:37;5.20;;;2.30;;
37847;SDS011;23688;33.130;-117.188;2022-11-15T14:07:14;5.93;;;2.45;;
37847;SDS011;23688;33.130;-117.188;2022-11-15T14:09:46;3.90;;;2.00;;
37847;SDS011;23688;33.130;-117.188;2022-11-15T14:14:48;10.25;;;2.33;;
37847;SDS011;23688;33.130;-117.188;2022-11-15T14:17:32;10.45;;;2.63;;
37847;SDS011;23688;33.130;-117.188;2022-11-15T14:20:00;7.18;;;3.53;;
37847;SDS011;23688;33.130;-117.188;2022-11-15T14:22:28;6.80;;;2.40;;
37847;SDS011;23688;33.130;-117.188;2022-11-15T14:25:14;8.07;;;2.95;;
37847;SDS011;23688;33.130;-117.188;2022-11-15T14:27:41;10.32;;;2.45;;
37847;SDS011;23688;33.130;-117.188;2022-11-15T14:30:15;5.55;;;2.58;;
37847;SDS011;23688;33.130;-117.188;2022-11-15T14:32:46;6.35;;;2.50;;
37847;SDS011;23688;33.130;-117.188;2022-11-15T14:35:18;12.85;;;2.95;;
37847;SDS011;23688;33.130;-117.188;2022-11-15T14:37:46;7.13;;;2.40;;
37847;SDS011;23688;33.130;-117.188;2022-11-15T14:40:14;10.00;;;3.08;;
37847;SDS011;23688;33.130;-117.188;2022-11-15T14:42:46;8.73;;;2.78;;
37847;SDS011;23688;33.130;-117.188;2022-11-15T14:45:14;7.20;;;2.78;;
37847;SDS011;23688;33.130;-117.188;2022-11-15T14:47:42;13.98;;;2.80;;
37847;SDS011;23688;33.130;-117.188;2022-11-15T14:50:13;13.95;;;3.35;;
37847;SDS011;23688;33.130;-117.188;2022-11-15T14:52:42;10.23;;;2.60;;
37847;SDS011;23688;33.130;-117.188;2022-11-15T14:55:13;5.40;;;2.72;;
37847;SDS011;23688;33.130;-117.188;2022-11-15T14:57:46;19.33;;;3.30;;
37847;SDS011;23688;33.130;-117.188;2022-11-15T15:00:13;15.38;;;2.72;;
37847;SDS011;23688;33.130;-117.188;2022-11-15T15:02:41;13.48;;;3.70;;
37847;SDS011;23688;33.130;-117.188;2022-11-15T15:07:52;10.18;;;2.65;;
37847;SDS011;23688;33.130;-117.188;2022-11-15T15:10:18;13.13;;;3.13;;
37847;SDS011;23688;33.130;-117.188;2022-11-15T15:12:45;12.73;;;2.63;;
37847;SDS011;23688;33.130;-117.188;2022-11-15T15:15:13;14.48;;;3.00;;
37847;SDS011;23688;33.130;-117.188;2022-11-15T15:20:07;9.77;;;2.55;;
37847;SDS011;23688;33.130;-117.188;2022-11-15T15:22:33;10.27;;;2.58;;
37847;SDS011;23688;33.130;-117.188;2022-11-15T15:25:00;20.63;;;3.08;;
37847;SDS011;23688;33.130;-117.188;2022-11-15T15:27:26;20.13;;;2.88;;
37847;SDS011;23688;33.130;-117.188;2022-11-15T15:29:52;10.95;;;2.85;;
37847;SDS011;23688;33.130;-117.188;2022-11-15T15:32:18;9.65;;;2.72;;
37847;SDS011;23688;33.130;-117.188;2022-11-15T15:34:45;6.18;;;3.17;;
37847;SDS011;23688;33.130;-117.188;2022-11-15T15:39:53;11.50;;;3.30;;
37847;SDS011;23688;33.130;-117.188;2022-11-15T15:42:21;10.48;;;2.70;;
37847;SDS011;23688;33.130;-117.188;2022-11-15T15:44:48;18.00;;;2.65;;
37847;SDS011;23688;33.130;-117.188;2022-11-15T15:47:24;17.23;;;2.80;;
37847;SDS011;23688;33.130;-117.188;2022-11-15T15:49:55;15.25;;;4.05;;
37847;SDS011;23688;33.130;-117.188;2022-11-15T15:52:21;18.45;;;3.13;;
37847;SDS011;23688;33.130;-117.188;2022-11-15T15:54:47;13.57;;;3.40;;
37847;SDS011;23688;33.130;-117.188;2022-11-15T15:57:13;18.35;;;4.07;;
37847;SDS011;23688;33.130;-117.188;2022-11-15T15:59:40;20.65;;;4.80;;
37847;SDS011;23688;33.130;-117.188;2022-11-15T16:02:13;26.40;;;3.83;;
37847;SDS011;23688;33.130;-117.188;2022-11-15T16:04:40;19.42;;;2.92;;
37847;SDS011;23688;33.130;-117.188;2022-11-15T16:07:07;17.35;;;3.22;;
37847;SDS011;23688;33.130;-117.188;2022-11-15T16:09:42;13.00;;;3.30;;
37847;SDS011;23688;33.130;-117.188;2022-11-15T16:14:59;16.75;;;4.03;;
37847;SDS011;23688;33.130;-117.188;2022-11-15T16:17:29;24.38;;;3.28;;
37847;SDS011;23688;33.130;-117.188;2022-11-15T16:20:01;24.25;;;4.50;;
37847;SDS011;23688;33.130;-117.188;2022-11-15T16:22:28;20.98;;;3.85;;
37847;SDS011;23688;33.130;-117.188;2022-11-15T16:24:54;17.40;;;3.42;;
37847;SDS011;23688;33.130;-117.188;2022-11-15T16:27:21;33.42;;;5.05;;
37847;SDS011;23688;33.130;-117.188;2022-11-15T16:29:48;11.65;;;3.67;;
37847;SDS011;23688;33.130;-117.188;2022-11-15T16:32:15;10.40;;;3.17;;
37847;SDS011;23688;33.130;-117.188;2022-11-15T16:34:41;9.35;;;3.05;;
37847;SDS011;23688;33.130;-117.188;2022-11-15T16:37:18;10.15;;;3.10;;
37847;SDS011;23688;33.130;-117.188;2022-11-15T16:39:47;14.60;;;2.85;;
37847;SDS011;23688;33.130;-117.188;2022-11-15T16:42:14;11.40;;;2.45;;
37847;SDS011;23688;33.130;-117.188;2022-11-15T16:44:40;14.00;;;1.98;;
37847;SDS011;23688;33.130;-117.188;2022-11-15T16:47:16;18.20;;;2.92;;
37847;SDS011;23688;33.130;-117.188;2022-11-15T16:49:47;12.60;;;2.10;;
37847;SDS011;23688;33.130;-117.188;2022-11-15T16:52:13;7.28;;;2.03;;
37847;SDS011;23688;33.130;-117.188;2022-11-15T16:54:39;10.73;;;2.53;;
37847;SDS011;23688;33.130;-117.188;2022-11-15T16:57:07;10.93;;;3.17;;
37847;SDS011;23688;33.130;-117.188;2022-11-15T16:59:35;13.68;;;2.55;;
37847;SDS011;23688;33.130;-117.188;2022-11-15T17:02:01;9.38;;;2.03;;
37847;SDS011;23688;33.130;-117.188;2022-11-15T17:04:28;8.05;;;2.55;;
37847;SDS011;23688;33.130;-117.188;2022-11-15T17:06:57;9.45;;;2.05;;
37847;SDS011;23688;33.130;-117.188;2022-11-15T17:09:24;11.63;;;1.80;;
37847;SDS011;23688;33.130;-117.188;2022-11-15T17:11:50;10.70;;;1.35;;
37847;SDS011;23688;33.130;-117.188;2022-11-15T17:14:17;5.13;;;1.23;;
37847;SDS011;23688;33.130;-117.188;2022-11-15T17:16:44;9.85;;;1.48;;